Time;durP1;ratioP1;P1;durP2;ratioP2;P2;SDS_P1;SDS_P2;PMS_P1;PMS_P2;Temp;Humidity;BMP_temperature;BMP_pressure;BME280_temperature;BME280_humidity;BME280_pressure;Samples;Min_cycle;Max_cycle;Signal;HPM_P1;HPM_P2
2023/02/15 00:01:07;;;;;;;404.48;54.45;;;0.90;99.90;;;;;;5009685;28;20049;-65
2023/02/15 00:03:33;;;;;;;474.80;60.95;;;0.90;99.90;;;;;;5010135;28;20054;-65
2023/02/15 00:05:59;;;;;;;478.35;64.07;;;0.80;99.90;;;;;;5007766;28;20038;-65
2023/02/15 00:08:25;;;;;;;202.55;36.75;;;0.80;99.90;;;;;;4992512;28;20037;-65
2023/02/15 00:10:50;;;;;;;304.35;44.85;;;0.80;99.90;;;;;;4992382;28;20478;-65
2023/02/15 00:13:16;;;;;;;443.75;59.88;;;0.80;99.90;;;;;;4991348;28;20054;-65
2023/02/15 00:15:42;;;;;;;160.82;35.28;;;0.80;99.90;;;;;;5009988;28;20129;-65
2023/02/15 00:18:07;;;;;;;563.30;68.80;;;0.70;99.90;;;;;;5010651;28;20065;-65
2023/02/15 00:20:33;;;;;;;107.53;29.17;;;0.70;99.90;;;;;;4992293;28;20466;-65
2023/02/15 00:22:59;;;;;;;688.90;84.47;;;0.60;99.90;;;;;;5008628;28;20046;-65
2023/02/15 00:25:25;;;;;;;527.53;70.47;;;0.60;99.90;;;;;;5009669;28;20030;-65
2023/02/15 00:27:51;;;;;;;313.33;47.30;;;0.60;99.90;;;;;;4991067;28;20035;-65
2023/02/15 00:30:16;;;;;;;356.92;53.20;;;0.50;99.90;;;;;;5010554;28;20505;-65
2023/02/15 00:32:42;;;;;;;188.05;40.90;;;0.50;99.90;;;;;;4992438;28;20069;-65
2023/02/15 00:35:09;;;;;;;29.63;23.50;;;0.50;99.90;;;;;;5009383;28;20045;-65
2023/02/15 00:37:35;;;;;;;31.75;24.58;;;0.40;99.90;;;;;;5010421;28;20088;-65
2023/02/15 00:40:01;;;;;;;607.75;77.85;;;0.40;99.90;;;;;;4992544;28;20038;-65
2023/02/15 00:42:26;;;;;;;85.53;31.65;;;0.40;99.90;;;;;;4984028;28;20057;-65
2023/02/15 00:44:52;;;;;;;48.92;27.17;;;0.30;99.90;;;;;;5008290;28;20037;-65
2023/02/15 00:47:18;;;;;;;37.40;25.33;;;0.30;99.90;;;;;;5010274;28;20045;-64
2023/02/15 00:49:43;;;;;;;44.88;26.63;;;0.30;99.90;;;;;;5010201;28;20044;-65
2023/02/15 00:52:09;;;;;;;27.83;21.88;;;0.30;99.90;;;;;;5009740;28;20038;-65
2023/02/15 00:54:35;;;;;;;31.27;22.17;;;0.30;99.90;;;;;;4991394;28;20042;-65
2023/02/15 00:57:01;;;;;;;31.05;22.48;;;0.20;99.90;;;;;;5009452;28;20077;-64
2023/02/15 00:59:26;;;;;;;31.52;23.50;;;0.30;99.90;;;;;;5011895;28;20054;-64
2023/02/15 01:01:52;;;;;;;33.00;24.13;;;0.20;99.90;;;;;;5011961;28;20422;-64
2023/02/15 01:04:18;;;;;;;30.83;24.30;;;0.30;99.90;;;;;;5012076;28;20038;-64
2023/02/15 01:06:43;;;;;;;25.15;20.67;;;0.30;99.90;;;;;;5011380;28;20053;-64
2023/02/15 01:09:09;;;;;;;24.38;20.63;;;0.30;99.90;;;;;;5013146;28;20037;-64
2023/02/15 01:11:35;;;;;;;29.25;24.17;;;0.20;99.90;;;;;;5012875;28;20030;-64
2023/02/15 01:14:02;;;;;;;32.38;23.63;;;0.30;99.90;;;;;;5011111;28;20037;-65
2023/02/15 01:16:28;;;;;;;36.38;24.45;;;0.30;99.90;;;;;;5013039;28;20038;-65
2023/02/15 01:18:55;;;;;;;31.77;24.25;;;0.30;99.90;;;;;;4995501;28;20562;-64
2023/02/15 01:21:23;;;;;;;30.17;24.05;;;0.30;99.90;;;;;;4992634;28;20398;-64
2023/02/15 01:23:49;;;;;;;25.75;22.40;;;0.30;99.90;;;;;;5007381;28;20128;-65
2023/02/15 01:26:15;;;;;;;26.67;22.42;;;0.30;99.90;;;;;;5013057;28;20205;-65
2023/02/15 01:28:41;;;;;;;26.45;21.90;;;0.30;99.90;;;;;;4995540;28;20033;-65
2023/02/15 01:31:11;;;;;;;22.58;20.17;;;0.20;99.90;;;;;;5012087;28;20088;-65
2023/02/15 01:33:38;;;;;;;22.58;19.38;;;0.20;99.90;;;;;;5013161;28;20053;-65
2023/02/15 01:36:04;;;;;;;24.80;21.02;;;0.20;99.90;;;;;;4997445;28;20038;-65
2023/02/15 01:38:30;;;;;;;22.10;19.75;;;0.20;99.90;;;;;;4994990;28;20046;-65
2023/02/15 01:44:05;;;;;;;24.20;19.93;;;0.10;99.90;;;;;;4993946;28;20599;-65
2023/02/15 01:46:37;;;;;;;25.85;21.30;;;0.10;99.90;;;;;;5010243;28;20313;-64
2023/02/15 01:49:16;;;;;;;38.55;23.30;;;0.10;99.90;;;;;;5013069;28;20045;-64
2023/02/15 01:51:45;;;;;;;46.65;24.50;;;0.10;99.90;;;;;;5012122;28;20069;-64
2023/02/15 01:54:17;;;;;;;73.22;29.27;;;0.10;99.90;;;;;;5012341;28;20120;-64
2023/02/15 01:56:43;;;;;;;64.78;26.92;;;0.00;99.90;;;;;;4994050;28;20041;-64
2023/02/15 01:59:15;;;;;;;56.65;27.83;;;0.00;99.90;;;;;;5011464;28;20045;-64
2023/02/15 02:01:41;;;;;;;263.83;46.15;;;0.00;99.90;;;;;;5009108;28;20041;-63
2023/02/15 02:04:19;;;;;;;61.65;28.25;;;0.00;99.90;;;;;;5008937;28;20133;-63
2023/02/15 02:06:48;;;;;;;175.75;40.13;;;0.00;99.90;;;;;;5011483;28;20382;-63
2023/02/15 02:09:14;;;;;;;160.18;39.20;;;0.00;99.90;;;;;;5011286;28;20354;-63
2023/02/15 02:11:41;;;;;;;152.45;39.83;;;0.00;99.90;;;;;;5011300;28;20048;-63
2023/02/15 02:14:07;;;;;;;221.82;41.97;;;0.00;99.90;;;;;;4994886;28;20049;-64
2023/02/15 02:16:40;;;;;;;159.43;34.90;;;-0.10;99.90;;;;;;5011082;28;20061;-64
2023/02/15 02:19:43;;;;;;;233.50;43.83;;;-0.10;99.90;;;;;;4991310;28;20034;-63
2023/02/15 02:22:44;;;;;;;104.13;32.20;;;-0.10;99.90;;;;;;4992656;28;20072;-63
2023/02/15 02:25:28;;;;;;;232.18;41.15;;;-0.10;99.90;;;;;;5011789;28;20057;-64
2023/02/15 02:27:59;;;;;;;283.25;45.80;;;-0.20;99.90;;;;;;5011799;28;20037;-63
2023/02/15 02:30:44;;;;;;;61.42;29.38;;;-0.10;99.90;;;;;;4993379;28;20076;-64
2023/02/15 02:33:33;;;;;;;75.78;29.33;;;-0.10;99.90;;;;;;5009255;28;20528;-63
2023/02/15 02:36:29;;;;;;;135.55;34.35;;;-0.20;99.90;;;;;;5010810;28;20038;-64
2023/02/15 02:39:16;;;;;;;118.85;32.55;;;-0.20;99.90;;;;;;5011275;28;20037;-64
2023/02/15 02:41:57;;;;;;;46.78;28.77;;;-0.30;99.90;;;;;;5009139;28;20042;-63
2023/02/15 02:44:28;;;;;;;68.35;32.10;;;-0.30;99.90;;;;;;5011158;28;20050;-63
2023/02/15 02:47:05;;;;;;;212.40;40.05;;;-0.30;99.90;;;;;;5011405;28;20041;-63
2023/02/15 02:49:32;;;;;;;625.13;74.82;;;-0.30;99.90;;;;;;5011480;28;20553;-63
2023/02/15 02:51:59;;;;;;;395.17;55.97;;;-0.30;99.90;;;;;;4992787;28;20117;-64
2023/02/15 02:54:26;;;;;;;139.65;37.88;;;-0.30;99.90;;;;;;5010868;28;20116;-63
2023/02/15 02:56:55;;;;;;;151.23;40.08;;;-0.30;99.90;;;;;;5011285;28;20053;-63
2023/02/15 02:59:28;;;;;;;282.15;51.00;;;-0.40;99.90;;;;;;5011695;28;20062;-64
2023/02/15 03:02:12;;;;;;;217.75;45.65;;;-0.30;99.90;;;;;;5008868;28;20056;-63
2023/02/15 03:04:44;;;;;;;205.85;44.05;;;-0.40;99.90;;;;;;4974621;28;20046;-64
2023/02/15 03:07:14;;;;;;;62.80;33.22;;;-0.30;99.90;;;;;;5011095;28;20045;-64
2023/02/15 03:09:45;;;;;;;45.38;29.10;;;-0.40;99.90;;;;;;5009239;28;20049;-64
2023/02/15 03:12:20;;;;;;;49.75;30.77;;;-0.40;99.90;;;;;;5010218;28;20029;-64
2023/02/15 03:15:10;;;;;;;55.25;31.50;;;-0.40;99.90;;;;;;4987424;28;20378;-64
2023/02/15 03:17:42;;;;;;;69.85;32.65;;;-0.40;99.90;;;;;;4977209;28;20517;-64
2023/02/15 03:20:18;;;;;;;56.50;32.95;;;-0.50;99.90;;;;;;5008502;28;20038;-63
2023/02/15 03:22:53;;;;;;;51.35;32.30;;;-0.50;99.90;;;;;;5006165;28;20045;-64
2023/02/15 03:25:26;;;;;;;231.15;45.25;;;-0.50;99.90;;;;;;5011268;28;20462;-64
2023/02/15 03:28:01;;;;;;;148.30;36.05;;;-0.50;99.90;;;;;;5009644;28;20104;-64
2023/02/15 03:30:30;;;;;;;174.82;34.13;;;-0.50;99.90;;;;;;5008606;28;20034;-64
2023/02/15 03:32:58;;;;;;;182.30;35.22;;;-0.50;99.90;;;;;;4992676;28;20084;-64
2023/02/15 03:35:30;;;;;;;286.17;46.50;;;-0.50;99.90;;;;;;4986791;28;20152;-64
2023/02/15 03:38:01;;;;;;;113.22;35.67;;;-0.60;99.90;;;;;;5008183;28;20253;-64
2023/02/15 03:43:58;;;;;;;157.40;37.40;;;-0.60;99.90;;;;;;5007167;28;20057;-64
2023/02/15 03:46:37;;;;;;;374.77;53.33;;;-0.60;99.90;;;;;;5000564;28;20045;-64
2023/02/15 03:49:05;;;;;;;310.52;48.38;;;-0.60;99.90;;;;;;5008241;28;20044;-63
2023/02/15 03:51:37;;;;;;;179.80;36.58;;;-0.60;99.90;;;;;;4992098;28;20182;-64
2023/02/15 04:02:53;;;;;;;318.85;51.05;;;-0.70;99.90;;;;;;5009724;28;20046;-64
2023/02/15 04:05:18;;;;;;;197.43;43.22;;;-0.70;99.90;;;;;;5010107;28;20088;-63
2023/02/15 04:07:44;;;;;;;260.60;49.45;;;-0.70;99.90;;;;;;5010055;28;20073;-64
2023/02/15 04:12:54;;;;;;;103.43;34.93;;;-0.70;99.90;;;;;;5010288;28;20046;-63
2023/02/15 04:18:04;;;;;;;144.13;38.53;;;-0.70;99.90;;;;;;5004841;28;20130;-64
2023/02/15 04:25:58;;;;;;;157.20;40.50;;;-0.70;99.90;;;;;;4991495;28;20125;-64
2023/02/15 04:28:24;;;;;;;311.80;54.10;;;-0.70;99.90;;;;;;5009984;28;20125;-64
2023/02/15 04:30:50;;;;;;;251.57;50.03;;;-0.70;99.90;;;;;;5006708;28;20104;-64
2023/02/15 04:33:24;;;;;;;271.75;50.22;;;-0.70;99.90;;;;;;5009511;28;20038;-64
2023/02/15 04:36:06;;;;;;;239.90;47.67;;;-0.70;99.90;;;;;;5010189;28;20070;-64
2023/02/15 04:38:44;;;;;;;298.13;53.42;;;-0.70;99.90;;;;;;5010581;28;20038;-63
2023/02/15 04:41:15;;;;;;;251.15;50.33;;;-0.70;99.90;;;;;;5010711;28;20159;-64
2023/02/15 04:43:40;;;;;;;347.98;55.05;;;-0.70;99.90;;;;;;5014125;28;20034;-64
2023/02/15 04:46:06;;;;;;;409.13;65.30;;;-0.70;99.90;;;;;;4992821;28;20038;-63
2023/02/15 04:48:32;;;;;;;286.67;58.00;;;-0.70;99.90;;;;;;5013763;28;20064;-63
2023/02/15 04:50:58;;;;;;;328.20;62.05;;;-0.70;99.90;;;;;;5013289;28;20076;-63
2023/02/15 04:53:24;;;;;;;375.40;68.53;;;-0.70;99.90;;;;;;5013251;28;20038;-64
2023/02/15 04:55:49;;;;;;;277.80;57.38;;;-0.60;99.90;;;;;;5013755;28;20049;-63
2023/02/15 04:58:15;;;;;;;80.70;38.13;;;-0.60;99.90;;;;;;5013307;28;20042;-63
2023/02/15 05:00:41;;;;;;;75.90;37.63;;;-0.60;99.90;;;;;;5013558;28;20532;-63
2023/02/15 05:03:06;;;;;;;83.78;38.78;;;-0.60;99.90;;;;;;4995244;28;20077;-63
2023/02/15 05:05:32;;;;;;;105.32;40.85;;;-0.70;99.90;;;;;;5013522;28;20041;-63
2023/02/15 05:07:58;;;;;;;153.80;46.67;;;-0.70;99.90;;;;;;5013239;28;20038;-64
2023/02/15 05:10:23;;;;;;;67.72;37.47;;;-0.60;99.90;;;;;;5013127;28;20165;-64
2023/02/15 05:12:49;;;;;;;48.17;35.80;;;-0.70;99.90;;;;;;4995061;28;20054;-63
2023/02/15 05:15:15;;;;;;;61.92;35.72;;;-0.70;99.90;;;;;;4994512;28;20135;-64
2023/02/15 05:17:41;;;;;;;114.20;43.13;;;-0.70;99.90;;;;;;5011785;28;20494;-64
2023/02/15 05:20:07;;;;;;;88.60;41.25;;;-0.70;99.90;;;;;;5013399;28;20033;-64
2023/02/15 05:22:32;;;;;;;81.65;41.10;;;-0.70;99.90;;;;;;5012553;28;20088;-64
2023/02/15 05:30:27;;;;;;;126.95;44.55;;;-0.70;99.90;;;;;;5013416;28;20124;-64
2023/02/15 05:32:52;;;;;;;55.90;36.00;;;-0.70;99.90;;;;;;4994714;28;20038;-63
2023/02/15 05:35:18;;;;;;;84.50;41.63;;;-0.70;99.90;;;;;;5012204;28;20049;-63
2023/02/15 05:37:44;;;;;;;62.17;38.38;;;-0.70;99.90;;;;;;5012201;28;20521;-63
2023/02/15 05:40:10;;;;;;;44.53;34.15;;;-0.70;99.90;;;;;;5013092;28;20118;-64
2023/02/15 05:42:36;;;;;;;54.83;35.65;;;-0.70;99.90;;;;;;5012081;28;20151;-63
2023/02/15 05:45:03;;;;;;;124.57;47.05;;;-0.70;99.90;;;;;;5011583;28;20467;-63
2023/02/15 05:47:29;;;;;;;157.05;51.55;;;-0.70;99.90;;;;;;5012873;28;20037;-64
2023/02/15 05:49:55;;;;;;;85.97;39.25;;;-0.70;99.90;;;;;;5012366;28;20137;-64
2023/02/15 05:52:21;;;;;;;142.65;45.05;;;-0.70;99.90;;;;;;4994383;28;20129;-63
2023/02/15 05:54:47;;;;;;;59.60;37.85;;;-0.70;99.90;;;;;;5012425;28;20041;-64
2023/02/15 05:57:12;;;;;;;254.35;55.40;;;-0.70;99.90;;;;;;5012818;28;20518;-64
2023/02/15 05:59:38;;;;;;;57.10;37.55;;;-0.60;99.90;;;;;;5010779;28;20068;-64
2023/02/15 06:02:06;;;;;;;172.57;45.70;;;-0.60;99.90;;;;;;4989186;28;20069;-64
2023/02/15 06:04:32;;;;;;;221.88;49.65;;;-0.70;99.90;;;;;;5012009;28;20050;-64
2023/02/15 06:06:57;;;;;;;286.85;61.35;;;-0.60;99.90;;;;;;5013404;28;20045;-64
2023/02/15 06:09:23;;;;;;;239.43;55.67;;;-0.60;99.90;;;;;;5011722;28;20450;-63
2023/02/15 06:11:49;;;;;;;170.27;49.33;;;-0.60;99.90;;;;;;5012090;28;20034;-64
2023/02/15 06:14:15;;;;;;;99.43;41.75;;;-0.60;99.90;;;;;;5012252;28;20045;-64
2023/02/15 06:16:41;;;;;;;100.03;44.72;;;-0.60;99.90;;;;;;5012270;28;20046;-64
2023/02/15 06:19:06;;;;;;;81.80;41.55;;;-0.60;99.90;;;;;;5011613;28;20081;-64
2023/02/15 06:21:32;;;;;;;95.40;44.50;;;-0.60;99.90;;;;;;5011603;28;20050;-64
2023/02/15 06:23:58;;;;;;;80.53;41.75;;;-0.60;99.90;;;;;;5011229;28;20042;-64
2023/02/15 06:26:23;;;;;;;78.38;42.78;;;-0.60;99.90;;;;;;5011457;28;20034;-65
2023/02/15 06:28:49;;;;;;;63.10;39.38;;;-0.50;99.90;;;;;;5018402;28;20044;-64
2023/02/15 06:31:15;;;;;;;62.08;37.85;;;-0.50;99.90;;;;;;5019799;28;20119;-64
2023/02/15 06:33:40;;;;;;;72.88;41.80;;;-0.50;99.90;;;;;;5017976;28;20444;-65
2023/02/15 06:36:07;;;;;;;72.25;41.17;;;-0.50;99.90;;;;;;4995314;28;20045;-64
2023/02/15 06:38:32;;;;;;;85.68;45.97;;;-0.50;99.90;;;;;;5013094;28;20046;-64
2023/02/15 06:40:58;;;;;;;73.95;41.85;;;-0.40;99.90;;;;;;4997857;28;20555;-64
2023/02/15 06:43:24;;;;;;;70.82;40.45;;;-0.40;99.90;;;;;;4998500;28;20038;-64
2023/02/15 06:45:50;;;;;;;68.88;40.17;;;-0.40;99.90;;;;;;5015239;28;20030;-64
2023/02/15 06:48:15;;;;;;;73.53;41.10;;;-0.30;99.90;;;;;;5015833;28;20040;-64
2023/02/15 06:50:41;;;;;;;75.78;41.95;;;-0.30;99.90;;;;;;5015409;28;20084;-64
2023/02/15 06:53:07;;;;;;;74.18;41.30;;;-0.30;99.90;;;;;;5018382;28;20072;-64
2023/02/15 06:55:33;;;;;;;79.20;43.45;;;-0.20;99.90;;;;;;4995316;28;20737;-64
2023/02/15 06:57:58;;;;;;;63.97;38.38;;;-0.20;99.90;;;;;;5013678;28;20094;-64
2023/02/15 07:00:24;;;;;;;64.68;39.53;;;-0.20;99.90;;;;;;5012551;28;20081;-64
2023/02/15 07:02:57;;;;;;;81.25;42.13;;;-0.10;99.90;;;;;;5015076;28;20041;-64
2023/02/15 07:05:24;;;;;;;79.97;42.60;;;-0.10;99.90;;;;;;5015317;28;20043;-64
2023/02/15 07:07:50;;;;;;;70.10;40.67;;;0.00;99.90;;;;;;5001790;28;20037;-64
2023/02/15 07:10:16;;;;;;;67.95;39.65;;;0.00;99.90;;;;;;5017339;28;20037;-64
2023/02/15 07:12:42;;;;;;;75.15;42.55;;;0.10;99.90;;;;;;4994887;28;20516;-64
2023/02/15 07:15:16;;;;;;;90.90;43.92;;;0.10;99.90;;;;;;4993227;28;20506;-64
2023/02/15 07:17:42;;;;;;;63.45;39.05;;;0.20;99.90;;;;;;5009679;28;20409;-64
2023/02/15 07:20:21;;;;;;;82.28;41.45;;;0.20;99.90;;;;;;5007090;28;20065;-64
2023/02/15 07:22:47;;;;;;;81.70;43.45;;;0.30;99.90;;;;;;4993005;28;20060;-64
2023/02/15 07:25:13;;;;;;;71.75;41.88;;;0.30;99.90;;;;;;4993037;28;20124;-64
2023/02/15 07:27:40;;;;;;;74.28;41.13;;;0.30;99.90;;;;;;5011302;28;20041;-64
2023/02/15 07:30:09;;;;;;;74.47;41.45;;;0.40;99.90;;;;;;5011117;28;20092;-63
2023/02/15 07:32:34;;;;;;;81.38;46.58;;;0.40;99.90;;;;;;5010800;28;20121;-64
2023/02/15 07:35:00;;;;;;;76.97;41.13;;;0.50;99.90;;;;;;5010577;28;20129;-64
2023/02/15 07:37:26;;;;;;;75.95;42.45;;;0.70;99.90;;;;;;5010877;28;20041;-65
2023/02/15 07:39:52;;;;;;;81.38;43.35;;;0.80;99.90;;;;;;5010576;28;21026;-65
2023/02/15 07:42:19;;;;;;;82.35;43.05;;;1.00;99.90;;;;;;4993054;28;20199;-65
2023/02/15 07:44:45;;;;;;;70.65;41.13;;;1.30;99.90;;;;;;4992900;28;20081;-65
2023/02/15 07:47:11;;;;;;;81.32;45.25;;;1.80;99.90;;;;;;5010283;28;20104;-66
2023/02/15 07:49:38;;;;;;;85.15;47.38;;;2.30;99.90;;;;;;4992244;28;20045;-65
2023/02/15 07:52:04;;;;;;;81.57;45.70;;;3.00;99.90;;;;;;5010474;28;20142;-66
2023/02/15 07:54:29;;;;;;;67.60;41.35;;;3.60;99.90;;;;;;5009791;28;20048;-66
2023/02/15 07:56:55;;;;;;;68.05;42.47;;;4.10;99.90;;;;;;5010453;28;20041;-65
2023/02/15 07:59:21;;;;;;;56.15;38.08;;;4.70;99.90;;;;;;5009675;28;20041;-66
2023/02/15 08:01:47;;;;;;;46.33;34.28;;;5.10;99.90;;;;;;5009920;28;20052;-65
2023/02/15 08:04:12;;;;;;;40.90;30.45;;;5.40;99.90;;;;;;4993106;28;20037;-66
2023/02/15 08:06:38;;;;;;;39.25;29.77;;;5.80;99.90;;;;;;5009302;28;20076;-66
2023/02/15 08:09:06;;;;;;;42.72;30.92;;;6.20;99.90;;;;;;5012875;28;20034;-66
2023/02/15 08:14:06;;;;;;;35.83;27.85;;;7.00;99.90;;;;;;5014139;28;20046;-66
2023/02/15 08:16:35;;;;;;;35.65;28.20;;;7.40;99.90;;;;;;5012641;28;20053;-65
2023/02/15 08:19:10;;;;;;;35.50;26.80;;;7.70;99.90;;;;;;5014056;28;20046;-66
2023/02/15 08:21:40;;;;;;;31.67;26.67;;;7.90;99.90;;;;;;5012632;28;20080;-66
2023/02/15 08:24:07;;;;;;;34.95;27.63;;;8.10;99.90;;;;;;5012950;28;20136;-66
2023/02/15 08:26:34;;;;;;;34.17;27.38;;;8.40;99.90;;;;;;5013633;28;20045;-66
2023/02/15 08:29:00;;;;;;;35.80;28.48;;;8.70;99.90;;;;;;5013853;28;20514;-66
2023/02/15 08:31:26;;;;;;;35.13;28.48;;;8.90;99.90;;;;;;5013918;28;20650;-65
2023/02/15 08:33:54;;;;;;;34.00;26.88;;;9.20;99.90;;;;;;5013879;28;20038;-66
2023/02/15 08:36:23;;;;;;;34.90;28.48;;;9.60;99.90;;;;;;5012472;28;20045;-66
2023/02/15 08:38:49;;;;;;;32.88;26.52;;;9.80;99.90;;;;;;5013417;28;20057;-65
2023/02/15 08:41:21;;;;;;;31.48;26.65;;;10.10;99.90;;;;;;4995781;28;20037;-66
2023/02/15 08:43:50;;;;;;;34.10;26.85;;;9.90;99.90;;;;;;5014023;28;20092;-66
2023/02/15 08:46:16;;;;;;;31.35;27.60;;;10.00;99.90;;;;;;4995677;28;20096;-66
2023/02/15 08:48:43;;;;;;;32.70;27.25;;;10.10;99.90;;;;;;5013907;28;20520;-66
2023/02/15 08:51:12;;;;;;;33.15;27.50;;;10.50;99.90;;;;;;5013221;28;20042;-66
2023/02/15 08:53:44;;;;;;;32.47;27.80;;;10.50;99.90;;;;;;5013652;28;20073;-64
2023/02/15 08:56:10;;;;;;;30.77;26.48;;;10.60;99.90;;;;;;5013329;28;20077;-67
2023/02/15 08:58:37;;;;;;;32.92;28.40;;;10.70;99.90;;;;;;4996046;28;20501;-65
2023/02/15 09:01:11;;;;;;;33.30;27.77;;;10.80;99.90;;;;;;5011303;28;20124;-65
2023/02/15 09:03:38;;;;;;;33.13;28.27;;;11.00;99.90;;;;;;5011032;28;20136;-65
2023/02/15 09:06:04;;;;;;;34.45;28.38;;;11.10;99.90;;;;;;5013210;28;20038;-65
2023/02/15 09:08:30;;;;;;;34.00;29.27;;;11.40;99.90;;;;;;5013155;28;20037;-65
2023/02/15 09:11:11;;;;;;;32.65;27.95;;;11.50;99.90;;;;;;5013056;28;20046;-65
2023/02/15 09:13:38;;;;;;;31.77;26.73;;;11.80;99.90;;;;;;5012223;28;20045;-65
2023/02/15 09:16:07;;;;;;;33.17;27.52;;;12.10;99.90;;;;;;5011928;28;20080;-65
2023/02/15 09:18:37;;;;;;;33.42;28.05;;;12.20;99.90;;;;;;4990738;28;20078;-66
2023/02/15 09:21:23;;;;;;;35.78;27.77;;;12.40;99.90;;;;;;4992629;28;20169;-66
2023/02/15 09:23:51;;;;;;;34.85;28.80;;;12.70;99.90;;;;;;5012561;28;20136;-66
2023/02/15 09:26:19;;;;;;;32.55;28.58;;;13.10;99.90;;;;;;5012951;28;20034;-66
2023/02/15 09:28:46;;;;;;;33.08;29.55;;;13.60;99.90;;;;;;5012885;28;20057;-66
2023/02/15 09:31:17;;;;;;;30.27;26.90;;;13.90;99.90;;;;;;5013027;28;20033;-66
2023/02/15 09:33:45;;;;;;;32.10;28.58;;;13.80;99.90;;;;;;5012493;28;20144;-66
2023/02/15 09:36:29;;;;;;;32.88;28.42;;;13.70;99.90;;;;;;5012154;28;20433;-66
2023/02/15 09:39:15;;;;;;;32.88;29.25;;;14.00;99.90;;;;;;5009485;28;20124;-66
2023/02/15 09:42:04;;;;;;;32.03;28.58;;;14.30;99.90;;;;;;5011018;28;20451;-66
2023/02/15 09:44:57;;;;;;;34.28;29.48;;;14.50;99.90;;;;;;4978030;28;20077;-66
2023/02/15 09:47:41;;;;;;;33.42;29.55;;;14.90;99.90;;;;;;5011928;28;20042;-65
2023/02/15 09:50:30;;;;;;;32.25;28.77;;;15.10;99.90;;;;;;5011499;28;20034;-65
2023/02/15 09:53:29;;;;;;;32.85;29.42;;;15.00;99.90;;;;;;5010875;28;20034;-66
2023/02/15 09:56:02;;;;;;;33.58;29.98;;;14.70;99.90;;;;;;5010123;28;20117;-66
2023/02/15 09:58:50;;;;;;;32.50;29.02;;;14.70;99.90;;;;;;5012363;28;20494;-65
2023/02/15 10:01:34;;;;;;;32.80;29.30;;;14.60;99.90;;;;;;4992723;28;20046;-66
2023/02/15 10:04:21;;;;;;;32.78;29.33;;;14.30;99.90;;;;;;4993520;28;20046;-66
2023/02/15 10:07:06;;;;;;;33.60;30.02;;;14.00;99.90;;;;;;5011053;28;20079;-66
2023/02/15 10:10:05;;;;;;;32.45;28.92;;;13.70;99.90;;;;;;5008687;28;20091;-66
2023/02/15 10:12:57;;;;;;;36.90;31.08;;;13.30;99.90;;;;;;5009068;28;20046;-66
2023/02/15 10:15:57;;;;;;;33.55;29.92;;;13.50;99.90;;;;;;5007924;28;20041;-66
2023/02/15 10:18:32;;;;;;;34.28;29.17;;;14.00;99.90;;;;;;5011936;28;20045;-66
2023/02/15 10:21:05;;;;;;;33.40;29.90;;;14.30;99.90;;;;;;5009747;28;20048;-66
2023/02/15 10:24:05;;;;;;;35.70;30.50;;;14.60;99.90;;;;;;4992235;28;20049;-66
2023/02/15 10:26:46;;;;;;;33.95;30.38;;;15.20;99.90;;;;;;5011849;28;20050;-66
2023/02/15 10:29:21;;;;;;;34.78;31.08;;;15.70;99.90;;;;;;5012616;28;20116;-67
2023/02/15 10:31:50;;;;;;;34.90;31.40;;;15.60;99.90;;;;;;5011418;28;20045;-66
2023/02/15 10:34:27;;;;;;;37.17;33.33;;;15.40;99.90;;;;;;4994955;28;20044;-67
2023/02/15 10:37:04;;;;;;;35.50;31.70;;;15.40;99.90;;;;;;5013629;28;20045;-67
2023/02/15 10:39:44;;;;;;;35.30;31.20;;;15.20;99.90;;;;;;5014652;28;20057;-66
2023/02/15 10:42:23;;;;;;;36.53;32.42;;;15.00;99.90;;;;;;5010057;28;20385;-66
2023/02/15 10:45:13;;;;;;;35.70;31.90;;;15.00;99.90;;;;;;5012819;28;20046;-66
2023/02/15 10:47:44;;;;;;;35.72;31.95;;;15.00;99.90;;;;;;5011266;28;20112;-66
2023/02/15 10:50:34;;;;;;;36.92;32.92;;;15.10;99.90;;;;;;5011888;28;20090;-67
2023/02/15 10:53:02;;;;;;;35.67;30.92;;;15.40;99.90;;;;;;5010494;28;20040;-66
2023/02/15 10:55:31;;;;;;;36.42;32.72;;;15.30;99.90;;;;;;5010839;28;20041;-66
2023/02/15 10:58:13;;;;;;;35.13;31.55;;;15.40;99.90;;;;;;5006954;28;20777;-66
2023/02/15 11:00:50;;;;;;;35.35;31.48;;;15.50;99.90;;;;;;5008693;28;20217;-66
2023/02/15 11:03:24;;;;;;;37.63;31.98;;;15.40;99.90;;;;;;5009491;28;20401;-66
2023/02/15 11:06:02;;;;;;;34.10;30.42;;;15.10;99.90;;;;;;5010247;28;20045;-66
2023/02/15 11:08:31;;;;;;;37.30;31.92;;;15.00;99.90;;;;;;5014634;28;20033;-66
2023/02/15 11:11:02;;;;;;;36.72;32.72;;;15.20;99.90;;;;;;5015222;28;20187;-66
2023/02/15 11:13:33;;;;;;;36.03;31.85;;;15.60;99.90;;;;;;4990779;28;20116;-66
2023/02/15 11:16:26;;;;;;;35.22;31.48;;;16.10;99.90;;;;;;5011485;28;20037;-66
2023/02/15 11:19:09;;;;;;;36.33;32.50;;;16.30;99.90;;;;;;5011384;28;20084;-66
2023/02/15 11:21:49;;;;;;;38.58;33.15;;;16.30;99.90;;;;;;4993251;28;20042;-66
2023/02/15 11:24:18;;;;;;;36.88;32.67;;;16.30;99.90;;;;;;4991298;28;20045;-66
2023/02/15 11:27:06;;;;;;;35.67;31.20;;;16.40;99.90;;;;;;5011374;28;20410;-66
2023/02/15 11:29:34;;;;;;;34.90;31.13;;;16.40;99.90;;;;;;5009206;28;20045;-66
2023/02/15 11:32:34;;;;;;;36.25;32.42;;;16.20;99.90;;;;;;4975479;28;20107;-66
2023/02/15 11:35:12;;;;;;;36.10;32.20;;;16.30;99.90;;;;;;4966308;28;20046;-66
2023/02/15 11:37:48;;;;;;;36.72;32.83;;;16.60;99.90;;;;;;5010733;28;20053;-66
2023/02/15 11:40:35;;;;;;;36.90;32.90;;;16.80;99.90;;;;;;5011078;28;20064;-66
2023/02/15 11:43:27;;;;;;;35.55;31.75;;;16.80;99.90;;;;;;5010163;28;20045;-66
2023/02/15 11:45:54;;;;;;;34.55;30.75;;;16.70;99.90;;;;;;4993415;28;20100;-66
2023/02/15 11:48:20;;;;;;;35.63;31.75;;;16.50;99.90;;;;;;5010950;28;20109;-66
2023/02/15 11:50:46;;;;;;;35.92;32.08;;;16.40;99.90;;;;;;5011668;28;20038;-66
2023/02/15 11:53:27;;;;;;;34.90;31.13;;;16.60;99.90;;;;;;5016944;28;20033;-66
2023/02/15 11:55:54;;;;;;;37.10;32.88;;;16.60;99.90;;;;;;5017756;28;20390;-66
2023/02/15 11:58:41;;;;;;;36.08;32.13;;;16.00;99.90;;;;;;5019786;28;20534;-66
2023/02/15 12:01:28;;;;;;;35.65;31.30;;;15.20;99.90;;;;;;5011326;28;20050;-66
2023/02/15 12:04:23;;;;;;;37.72;31.95;;;14.30;99.90;;;;;;4992486;28;20049;-66
2023/02/15 12:07:01;;;;;;;39.92;33.22;;;13.60;99.90;;;;;;5011361;28;20038;-66
2023/02/15 12:09:40;;;;;;;37.25;32.88;;;13.10;99.90;;;;;;5009891;28;20044;-68
2023/02/15 12:12:25;;;;;;;35.25;30.77;;;12.70;99.90;;;;;;4997978;28;20558;-65
2023/02/15 12:14:55;;;;;;;36.33;31.52;;;12.50;99.90;;;;;;5015304;28;20038;-65
2023/02/15 12:17:27;;;;;;;38.63;32.50;;;12.20;99.90;;;;;;5013965;28;20070;-65
2023/02/15 12:19:57;;;;;;;35.28;30.67;;;12.00;99.90;;;;;;5019570;28;20034;-66
2023/02/15 12:22:29;;;;;;;38.05;31.40;;;11.90;99.90;;;;;;4993765;28;20108;-66
2023/02/15 12:24:58;;;;;;;41.90;33.28;;;11.80;99.90;;;;;;5013803;28;20042;-66
2023/02/15 12:27:32;;;;;;;42.15;32.75;;;11.70;99.90;;;;;;5014776;28;20105;-66
2023/02/15 12:29:58;;;;;;;;;;;11.50;99.90;;;;;;5015003;28;20052;-66
2023/02/15 12:32:51;;;;;;;43.67;31.15;;;11.40;99.90;;;;;;4991561;28;20300;-66
2023/02/15 12:35:28;;;;;;;38.40;29.00;;;11.30;99.90;;;;;;5008141;28;20037;-66
2023/02/15 12:37:56;;;;;;;35.95;29.17;;;11.20;99.90;;;;;;4991901;28;20394;-66
2023/02/15 12:40:31;;;;;;;37.88;30.30;;;11.20;99.90;;;;;;5009760;28;20084;-66
2023/02/15 12:42:57;;;;;;;41.35;31.00;;;11.20;99.90;;;;;;5008559;28;20045;-66
2023/02/15 12:45:27;;;;;;;40.47;30.35;;;11.20;99.90;;;;;;5010409;28;20050;-66
2023/02/15 12:48:11;;;;;;;41.65;31.48;;;11.20;99.90;;;;;;5009852;28;20112;-66
2023/02/15 12:50:40;;;;;;;40.80;30.25;;;11.20;99.90;;;;;;4990723;28;20378;-66
2023/02/15 12:53:33;;;;;;;41.88;29.70;;;11.20;99.90;;;;;;4991617;28;20454;-66
2023/02/15 12:56:01;;;;;;;40.78;29.50;;;11.20;99.90;;;;;;5013450;28;20044;-66
2023/02/15 12:58:30;;;;;;;40.65;30.48;;;11.20;99.90;;;;;;4994722;28;20096;-66
2023/02/15 13:01:12;;;;;;;39.30;29.63;;;11.20;99.90;;;;;;4995569;28;20077;-66
2023/02/15 13:03:53;;;;;;;40.90;29.77;;;11.20;99.90;;;;;;5012760;28;20052;-66
2023/02/15 13:06:21;;;;;;;39.15;29.02;;;11.20;99.90;;;;;;4995629;28;20096;-66
2023/02/15 13:08:52;;;;;;;40.33;30.90;;;11.20;99.90;;;;;;5012511;28;20078;-66
2023/02/15 13:11:37;;;;;;;39.78;31.80;;;11.20;99.90;;;;;;4995433;28;20079;-66
2023/02/15 13:14:19;;;;;;;39.47;29.85;;;11.30;99.90;;;;;;4993385;28;20049;-66
2023/02/15 13:16:48;;;;;;;36.80;29.23;;;11.20;99.90;;;;;;5013225;28;20080;-66
2023/02/15 13:19:24;;;;;;;39.67;30.77;;;11.20;99.90;;;;;;5011679;28;20045;-66
2023/02/15 13:21:52;;;;;;;38.63;29.00;;;11.20;99.90;;;;;;5012399;28;20368;-66
2023/02/15 13:24:25;;;;;;;40.17;31.10;;;11.20;99.90;;;;;;5011510;28;20049;-66